createdAt,value
2018-11-26T00:00:46.881Z,54.10
2018-11-26T00:03:15.403Z,56.53
2018-11-26T00:05:43.864Z,216.57
2018-11-26T00:08:13.302Z,52.77
2018-11-26T00:10:53.089Z,49.53
2018-11-26T00:13:21.556Z,68.07
2018-11-26T00:15:49.998Z,49.40
2018-11-26T00:18:18.475Z,46.63
2018-11-26T00:20:46.922Z,59.47
2018-11-26T00:23:15.396Z,105.67
2018-11-26T00:25:43.896Z,72.70
2018-11-26T00:28:12.387Z,68.83
2018-11-26T00:30:40.866Z,60.57
2018-11-26T00:33:09.323Z,74.73
2018-11-26T00:35:37.791Z,61.40
2018-11-26T00:38:06.341Z,58.83
2018-11-26T00:40:34.827Z,51.37
2018-11-26T00:43:03.320Z,57.47
2018-11-26T00:45:31.830Z,63.80
2018-11-26T00:48:00.280Z,71.17
2018-11-26T00:50:28.747Z,65.20
2018-11-26T00:52:57.202Z,76.93
2018-11-26T00:55:25.669Z,78.33
2018-11-26T00:57:54.111Z,96.67
2018-11-26T01:00:22.616Z,72.97
2018-11-26T01:02:51.070Z,74.30
2018-11-26T01:05:30.526Z,76.07
2018-11-26T01:07:58.974Z,66.43
2018-11-26T01:10:27.444Z,67.53
2018-11-26T01:12:55.900Z,86.37
2018-11-26T01:15:24.372Z,67.40
2018-11-26T01:17:52.810Z,60.87
2018-11-26T01:20:21.372Z,86.53
2018-11-26T01:22:49.818Z,70.13
2018-11-26T01:25:18.350Z,74.60
2018-11-26T01:27:46.798Z,68.63
2018-11-26T01:30:15.291Z,70.47
2018-11-26T01:32:43.760Z,73.43
2018-11-26T01:35:12.247Z,74.33
2018-11-26T01:37:40.683Z,73.50
2018-11-26T01:40:14.014Z,78.20
2018-11-26T01:42:42.812Z,72.23
2018-11-26T01:45:11.277Z,66.10
2018-11-26T01:47:39.756Z,68.10
2018-11-26T01:50:08.499Z,81.43
2018-11-26T01:52:36.988Z,62.73
2018-11-26T01:55:06.080Z,69.47
2018-11-26T01:57:34.562Z,78.50
2018-11-26T02:00:03.504Z,74.97
2018-11-26T02:02:44.495Z,69.40
2018-11-26T02:05:12.943Z,71.07
2018-11-26T02:07:41.423Z,74.63
2018-11-26T02:10:13.928Z,77.20
2018-11-26T02:12:42.402Z,71.93
2018-11-26T02:15:18.914Z,68.63
2018-11-26T02:17:47.406Z,77.53
2018-11-26T02:20:15.858Z,81.03
2018-11-26T02:22:44.364Z,82.13
2018-11-26T02:25:12.839Z,77.57
2018-11-26T02:27:41.307Z,61.87
2018-11-26T02:30:09.798Z,68.27
2018-11-26T02:32:38.254Z,67.10
2018-11-26T02:35:07.043Z,75.30
2018-11-26T02:37:35.516Z,93.67
2018-11-26T02:40:04.004Z,78.33
2018-11-26T02:42:32.476Z,87.47
2018-11-26T02:45:00.906Z,62.03
2018-11-26T02:47:29.382Z,217.80
2018-11-26T02:49:57.824Z,122.37
2018-11-26T02:52:26.276Z,71.43
2018-11-26T02:54:54.713Z,53.23
2018-11-26T02:57:23.179Z,56.50
2018-11-26T02:59:55.351Z,55.17
2018-11-26T03:02:23.807Z,48.50
2018-11-26T03:04:52.235Z,56.63
2018-11-26T03:07:20.705Z,59.47
2018-11-26T03:09:49.160Z,57.77
2018-11-26T03:12:17.635Z,57.27
2018-11-26T03:14:46.092Z,55.77
2018-11-26T03:17:14.563Z,49.37
2018-11-26T03:19:43.010Z,55.67
2018-11-26T03:22:11.469Z,51.20
2018-11-26T03:24:39.949Z,45.33
2018-11-26T03:27:08.428Z,62.77
2018-11-26T03:29:36.884Z,47.30
2018-11-26T03:32:05.416Z,47.73
2018-11-26T03:34:33.876Z,52.50
2018-11-26T03:37:02.323Z,54.30
2018-11-26T03:39:30.812Z,60.90
2018-11-26T03:41:59.254Z,62.07
2018-11-26T03:44:27.730Z,82.23
2018-11-26T03:46:56.176Z,76.67
2018-11-26T03:49:24.657Z,49.00
2018-11-26T03:51:53.108Z,48.47
2018-11-26T03:54:21.588Z,47.10
2018-11-26T03:56:50.036Z,64.70
2018-11-26T03:59:18.508Z,68.27
2018-11-26T04:01:46.958Z,63.87
2018-11-26T04:04:15.432Z,52.40
2018-11-26T04:06:43.888Z,58.23
2018-11-26T04:09:12.376Z,40.93
2018-11-26T04:11:40.819Z,55.50
2018-11-26T04:14:09.327Z,50.47
2018-11-26T04:16:37.766Z,45.97
2018-11-26T04:19:06.627Z,43.00
2018-11-26T04:21:35.088Z,51.03
2018-11-26T04:24:03.599Z,43.87
2018-11-26T04:26:32.082Z,44.87
2018-11-26T04:29:00.543Z,44.60
2018-11-26T04:31:28.989Z,43.93
2018-11-26T04:33:57.465Z,43.10
2018-11-26T04:36:25.902Z,46.53
2018-11-26T04:38:54.365Z,59.90
2018-11-26T04:41:22.801Z,56.30
2018-11-26T04:43:51.254Z,127.80
2018-11-26T04:46:19.713Z,157.10
2018-11-26T04:48:48.183Z,113.90
2018-11-26T04:51:16.626Z,108.67
2018-11-26T04:53:45.095Z,72.60
2018-11-26T04:56:13.539Z,101.00
2018-11-26T04:58:42.014Z,79.60
2018-11-26T05:01:10.455Z,128.40
2018-11-26T05:03:38.920Z,68.07
2018-11-26T05:06:07.400Z,71.33
2018-11-26T05:08:35.887Z,83.80
2018-11-26T05:11:04.341Z,86.77
2018-11-26T05:13:32.798Z,72.37
2018-11-26T05:16:01.240Z,58.23
2018-11-26T05:18:29.709Z,68.83
2018-11-26T05:20:58.129Z,67.87
2018-11-26T05:23:26.590Z,68.90
2018-11-26T05:25:55.066Z,72.67
2018-11-26T05:28:23.534Z,68.93
2018-11-26T05:30:51.975Z,66.87
2018-11-26T05:33:20.455Z,58.17
2018-11-26T05:35:48.899Z,58.70
2018-11-26T05:38:17.352Z,60.30
2018-11-26T05:40:45.826Z,56.60
2018-11-26T05:43:14.274Z,53.43
2018-11-26T05:45:42.749Z,45.83
2018-11-26T05:48:11.184Z,37.00
2018-11-26T05:50:39.663Z,24.97
2018-11-26T05:53:08.137Z,33.00
2018-11-26T05:55:36.622Z,32.10
2018-11-26T05:58:05.140Z,40.13
2018-11-26T06:00:34.752Z,35.07
2018-11-26T06:03:03.361Z,31.47
2018-11-26T06:05:31.837Z,35.30
2018-11-26T06:08:00.295Z,40.03
2018-11-26T06:10:28.764Z,40.83
2018-11-26T06:12:57.206Z,36.83
2018-11-26T06:15:25.668Z,35.97
2018-11-26T06:17:54.127Z,38.93
2018-11-26T06:20:22.608Z,38.70
2018-11-26T06:22:51.050Z,36.07
2018-11-26T06:25:20.715Z,34.60
2018-11-26T06:27:49.324Z,31.53
2018-11-26T06:30:18.969Z,37.20
2018-11-26T06:32:47.475Z,43.03
2018-11-26T06:35:23.356Z,35.70
2018-11-26T06:37:51.830Z,40.50
2018-11-26T06:40:20.331Z,29.83
2018-11-26T06:42:48.771Z,35.43
2018-11-26T06:45:20.498Z,39.50
2018-11-26T06:47:48.933Z,32.97
2018-11-26T06:50:18.418Z,39.43
2018-11-26T06:52:46.871Z,37.07
2018-11-26T06:55:16.447Z,36.40
2018-11-26T06:57:44.892Z,32.67
2018-11-26T07:00:15.590Z,44.23
2018-11-26T07:02:44.070Z,24.80
2018-11-26T07:05:15.561Z,27.30
2018-11-26T07:07:44.113Z,22.07
2018-11-26T07:10:13.244Z,23.93
2018-11-26T07:12:41.768Z,23.17
2018-11-26T07:15:14.244Z,23.10
2018-11-26T07:17:42.787Z,18.03
2018-11-26T07:20:13.391Z,14.63
2018-11-26T07:22:41.856Z,19.93
2018-11-26T07:25:13.460Z,19.77
2018-11-26T07:27:42.270Z,19.87
2018-11-26T07:30:17.651Z,16.80
2018-11-26T07:32:46.107Z,19.40
2018-11-26T07:35:15.105Z,13.87
2018-11-26T07:37:43.599Z,13.87
2018-11-26T07:40:15.214Z,16.70
2018-11-26T07:42:54.607Z,12.87
2018-11-26T07:45:23.081Z,16.33
2018-11-26T07:47:51.544Z,13.93
2018-11-26T07:50:20.284Z,10.57
2018-11-26T07:52:48.755Z,14.03
2018-11-26T07:55:18.462Z,13.90
2018-11-26T07:57:46.934Z,11.67
2018-11-26T08:00:19.993Z,11.97
2018-11-26T08:02:48.810Z,9.70
2018-11-26T08:05:19.332Z,7.70
2018-11-26T08:07:47.784Z,11.60
2018-11-26T08:10:17.381Z,8.60
2018-11-26T08:12:46.624Z,7.73
2018-11-26T08:15:18.179Z,8.80
2018-11-26T08:17:46.632Z,7.17
2018-11-26T08:20:15.084Z,8.97
2018-11-26T08:22:43.551Z,8.20
2018-11-26T08:25:14.061Z,9.10
2018-11-26T08:27:43.532Z,4.37
2018-11-26T08:30:13.379Z,6.43
2018-11-26T08:32:42.034Z,3.80
2018-11-26T08:35:12.250Z,4.17
2018-11-26T08:37:45.935Z,4.87
2018-11-26T08:40:25.316Z,5.13
2018-11-26T08:44:02.795Z,4.27
2018-11-26T08:46:36.857Z,4.10
2018-11-26T08:49:11.562Z,4.90
2018-11-26T08:51:40.295Z,3.43
2018-11-26T08:54:08.772Z,2.70
2018-11-26T08:56:37.207Z,3.97
2018-11-26T08:59:05.751Z,3.57
2018-11-26T09:01:35.240Z,2.70
2018-11-26T09:04:09.030Z,4.10
2018-11-26T09:06:37.896Z,3.70
2018-11-26T09:09:09.804Z,2.30
2018-11-26T09:11:38.241Z,3.30
2018-11-26T09:14:07.032Z,2.53
2018-11-26T09:16:35.799Z,2.30
2018-11-26T09:19:04.283Z,4.93
2018-11-26T09:21:32.721Z,1.70
2018-11-26T09:24:01.208Z,1.60
2018-11-26T09:26:29.655Z,2.03
2018-11-26T09:28:58.094Z,1.93
2018-11-26T09:31:26.535Z,1.53
2018-11-26T09:33:54.994Z,2.07
2018-11-26T09:36:23.443Z,1.67
2018-11-26T09:38:51.934Z,2.03
2018-11-26T09:41:21.186Z,1.70
2018-11-26T09:43:49.608Z,2.70
2018-11-26T09:46:18.118Z,1.40
2018-11-26T09:48:46.549Z,3.17
2018-11-26T09:51:15.011Z,1.73
2018-11-26T09:53:43.492Z,1.30
2018-11-26T09:56:11.983Z,1.53
2018-11-26T09:58:40.416Z,2.73
2018-11-26T10:01:08.876Z,2.57
2018-11-26T10:03:37.354Z,2.60
2018-11-26T10:06:06.243Z,1.27
2018-11-26T10:08:34.675Z,1.43
2018-11-26T10:11:03.139Z,1.27
2018-11-26T10:13:31.575Z,1.60
2018-11-26T10:16:00.034Z,2.07
2018-11-26T10:18:28.472Z,2.03
2018-11-26T10:20:56.934Z,2.63
2018-11-26T10:23:25.367Z,2.40
2018-11-26T10:25:53.854Z,2.20
2018-11-26T10:28:22.431Z,1.63
2018-11-26T10:30:51.087Z,2.20
2018-11-26T10:33:19.617Z,3.00
2018-11-26T10:35:48.092Z,2.37
2018-11-26T10:38:16.527Z,4.53
2018-11-26T10:40:44.982Z,2.70
2018-11-26T10:43:13.423Z,2.70
2018-11-26T10:45:41.887Z,3.07
2018-11-26T10:48:10.317Z,3.67
2018-11-26T10:50:38.790Z,4.40
2018-11-26T10:53:07.347Z,4.30
2018-11-26T10:55:36.759Z,3.43
2018-11-26T10:58:05.858Z,5.00
2018-11-26T11:00:38.515Z,6.00
2018-11-26T11:03:07.042Z,4.07
2018-11-26T11:05:36.507Z,3.50
2018-11-26T11:08:05.375Z,3.13
2018-11-26T11:10:34.175Z,3.00
2018-11-26T11:13:02.634Z,4.37
2018-11-26T11:15:31.115Z,3.50
2018-11-26T11:17:59.583Z,4.20
2018-11-26T11:20:28.966Z,4.27
2018-11-26T11:22:57.424Z,4.00
2018-11-26T11:25:26.273Z,5.33
2018-11-26T11:27:54.484Z,5.70
2018-11-26T11:30:24.669Z,4.37
2018-11-26T11:32:53.139Z,5.03
2018-11-26T11:35:21.637Z,4.33
2018-11-26T11:37:50.996Z,4.43
2018-11-26T11:40:23.725Z,4.57
2018-11-26T11:42:52.548Z,3.83
2018-11-26T11:45:21.484Z,4.20
2018-11-26T11:47:49.937Z,4.53
2018-11-26T11:50:20.148Z,4.53
2018-11-26T11:52:48.871Z,4.63
2018-11-26T11:55:23.414Z,4.17
2018-11-26T11:57:52.292Z,5.37
2018-11-26T12:00:39.094Z,5.50
2018-11-26T12:03:09.882Z,5.50
2018-11-26T12:05:38.362Z,7.43
2018-11-26T12:08:07.790Z,6.40
2018-11-26T12:10:36.261Z,6.93
2018-11-26T12:13:04.784Z,5.47
2018-11-26T12:15:33.240Z,6.53
2018-11-26T12:18:01.685Z,6.30
2018-11-26T12:20:30.120Z,7.27
2018-11-26T12:22:58.598Z,9.10
2018-11-26T12:25:27.064Z,7.40
2018-11-26T12:27:55.529Z,7.97
2018-11-26T12:30:25.192Z,6.63
2018-11-26T12:32:53.714Z,5.80
2018-11-26T12:35:22.191Z,6.23
2018-11-26T12:37:50.802Z,6.87
2018-11-26T12:40:21.327Z,5.73
2018-11-26T12:42:50.784Z,7.00
2018-11-26T12:45:21.413Z,6.07
2018-11-26T12:47:49.965Z,7.83
2018-11-26T12:50:18.478Z,8.80
2018-11-26T12:52:46.940Z,5.97
2018-11-26T12:55:16.612Z,6.70
2018-11-26T12:57:45.870Z,4.97
2018-11-26T13:00:17.113Z,6.33
2018-11-26T13:02:46.868Z,5.77
2018-11-26T13:05:17.290Z,4.77
2018-11-26T13:07:45.740Z,4.90
2018-11-26T13:10:15.229Z,6.10
2018-11-26T13:12:43.968Z,5.30
2018-11-26T13:15:13.780Z,4.90
2018-11-26T13:17:42.260Z,5.83
2018-11-26T13:20:17.934Z,4.57
2018-11-26T13:22:46.401Z,5.97
2018-11-26T13:25:16.240Z,6.13
2018-11-26T13:27:47.026Z,4.43
2018-11-26T13:30:18.386Z,6.93
2018-11-26T13:32:49.129Z,6.73
2018-11-26T13:35:18.442Z,5.50
2018-11-26T13:37:46.944Z,8.37
2018-11-26T13:40:16.462Z,6.83
2018-11-26T13:42:45.050Z,6.60
2018-11-26T13:45:19.940Z,7.90
2018-11-26T13:47:48.397Z,7.50
2018-11-26T13:50:23.022Z,8.40
2018-11-26T13:52:50.745Z,7.20
2018-11-26T13:55:19.228Z,4.53
2018-11-26T13:57:47.779Z,5.93
2018-11-26T14:00:16.908Z,7.23
2018-11-26T14:02:45.359Z,5.03
2018-11-26T14:05:17.976Z,6.37
2018-11-26T14:07:46.826Z,4.70
2018-11-26T14:10:18.396Z,5.13
2018-11-26T14:12:48.196Z,5.57
2018-11-26T14:15:16.694Z,5.17
2018-11-26T14:17:45.144Z,5.77
2018-11-26T14:20:14.953Z,5.27
2018-11-26T14:22:43.418Z,5.63
2018-11-26T14:25:13.344Z,5.10
2018-11-26T14:27:42.312Z,3.63
2018-11-26T14:30:16.005Z,5.60
2018-11-26T14:32:44.456Z,3.70
2018-11-26T14:35:12.925Z,4.37
2018-11-26T14:37:41.397Z,5.03
2018-11-26T14:40:16.300Z,4.50
2018-11-26T14:42:44.751Z,3.50
2018-11-26T14:45:13.923Z,4.60
2018-11-26T14:47:42.798Z,4.70
2018-11-26T14:50:14.068Z,3.90
2018-11-26T14:52:43.704Z,4.03
2018-11-26T14:55:21.735Z,3.13
2018-11-26T14:57:50.393Z,4.23
2018-11-26T15:00:19.545Z,4.53
2018-11-26T15:02:47.992Z,3.57
2018-11-26T15:05:16.545Z,4.80
2018-11-26T15:07:45.191Z,5.90
2018-11-26T15:10:15.703Z,4.77
2018-11-26T15:12:44.372Z,4.10
2018-11-26T15:15:15.168Z,3.27
2018-11-26T15:17:44.254Z,3.67
2018-11-26T15:20:21.331Z,4.83
2018-11-26T15:22:50.241Z,6.93
2018-11-26T15:25:21.028Z,6.27
2018-11-26T15:27:49.567Z,7.17
2018-11-26T15:30:19.370Z,6.23
2018-11-26T15:32:47.837Z,6.90
2018-11-26T15:35:19.330Z,5.20
2018-11-26T15:37:47.803Z,6.50
2018-11-26T15:40:17.252Z,6.83
2018-11-26T15:42:45.694Z,5.00
2018-11-26T15:45:20.344Z,6.23
2018-11-26T15:47:49.361Z,8.23
2018-11-26T15:50:17.895Z,5.27
2018-11-26T15:52:46.336Z,6.07
2018-11-26T15:55:17.039Z,6.60
2018-11-26T15:57:45.586Z,20.90
2018-11-26T16:00:16.211Z,10.33
2018-11-26T16:02:44.747Z,8.30
2018-11-26T16:05:21.085Z,12.43
2018-11-26T16:07:50.257Z,9.47
2018-11-26T16:10:18.719Z,8.83
2018-11-26T16:12:48.719Z,10.93
2018-11-26T16:15:31.973Z,4.87
2018-11-26T16:18:01.323Z,5.17
2018-11-26T16:20:29.816Z,7.73
2018-11-26T16:22:59.261Z,5.33
2018-11-26T16:25:27.762Z,7.13
2018-11-26T16:27:56.236Z,11.90
2018-11-26T16:30:24.667Z,10.37
2018-11-26T16:32:57.254Z,7.33
2018-11-26T16:35:31.588Z,8.03
2018-11-26T16:38:00.270Z,7.27
2018-11-26T16:40:28.740Z,16.77
2018-11-26T16:42:57.207Z,19.70
2018-11-26T16:45:27.742Z,25.50
2018-11-26T16:47:57.489Z,21.57
2018-11-26T16:50:31.183Z,11.43
2018-11-26T16:52:59.657Z,11.53
2018-11-26T16:55:28.111Z,11.27
2018-11-26T16:57:56.582Z,18.33
2018-11-26T17:00:27.185Z,8.70
2018-11-26T17:02:57.905Z,10.73
2018-11-26T17:05:28.681Z,10.07
2018-11-26T17:07:57.138Z,9.67
2018-11-26T17:10:25.600Z,9.17
2018-11-26T17:12:54.083Z,15.17
2018-11-26T17:15:22.542Z,12.33
2018-11-26T17:17:50.977Z,14.53
2018-11-26T17:20:19.470Z,9.80
2018-11-26T17:22:47.910Z,13.90
2018-11-26T17:25:17.183Z,10.30
2018-11-26T17:27:46.002Z,10.30
2018-11-26T17:30:18.825Z,11.23
2018-11-26T17:32:49.418Z,10.23
2018-11-26T17:35:18.070Z,12.17
2018-11-26T17:37:46.547Z,12.23
2018-11-26T17:40:18.003Z,8.50
2018-11-26T17:42:46.455Z,10.17
2018-11-26T17:45:15.485Z,7.77
2018-11-26T17:47:47.062Z,13.37
2018-11-26T17:50:24.476Z,7.73
2018-11-26T17:52:52.917Z,9.10
2018-11-26T17:55:21.403Z,7.20
2018-11-26T17:57:49.939Z,12.07
2018-11-26T18:00:24.023Z,8.00
2018-11-26T18:02:52.491Z,11.00
2018-11-26T18:05:25.467Z,7.27
2018-11-26T18:07:58.419Z,7.10
2018-11-26T18:10:26.889Z,6.93
2018-11-26T18:12:55.332Z,9.03
2018-11-26T18:15:23.793Z,6.27
2018-11-26T18:17:52.241Z,7.13
2018-11-26T18:20:21.729Z,4.83
2018-11-26T18:22:51.583Z,7.40
2018-11-26T18:25:20.747Z,6.80
2018-11-26T18:27:53.993Z,5.80
2018-11-26T18:30:24.723Z,6.77
2018-11-26T18:32:53.173Z,9.60
2018-11-26T18:35:21.626Z,6.57
2018-11-26T18:37:50.124Z,6.30
2018-11-26T18:40:18.606Z,11.57
2018-11-26T18:42:47.089Z,7.13
2018-11-26T18:45:16.633Z,10.37
2018-11-26T18:47:45.876Z,7.60
2018-11-26T18:50:17.548Z,6.10
2018-11-26T18:52:46.560Z,7.80
2018-11-26T18:55:15.028Z,8.13
2018-11-26T18:57:43.625Z,12.73
2018-11-26T19:00:17.664Z,9.60
2018-11-26T19:02:46.146Z,8.17
2018-11-26T19:05:15.469Z,9.27
2018-11-26T19:07:43.935Z,9.13
2018-11-26T19:10:18.495Z,10.70
2018-11-26T19:12:50.801Z,9.20
2018-11-26T19:15:22.218Z,10.10
2018-11-26T19:17:51.904Z,7.90
2018-11-26T19:20:20.393Z,7.47
2018-11-26T19:22:48.852Z,7.90
2018-11-26T19:25:18.505Z,7.80
2018-11-26T19:27:47.016Z,8.63
2018-11-26T19:30:15.932Z,8.70
2018-11-26T19:32:45.278Z,6.50
2018-11-26T19:35:14.970Z,10.10
2018-11-26T19:37:43.500Z,7.30
2018-11-26T19:40:15.110Z,5.07
2018-11-26T19:42:45.248Z,7.03
2018-11-26T19:45:16.085Z,7.47
2018-11-26T19:47:44.623Z,6.40
2018-11-26T19:50:14.265Z,4.97
2018-11-26T19:52:42.868Z,5.80
2018-11-26T19:55:15.659Z,7.00
2018-11-26T19:57:44.124Z,7.90
2018-11-26T20:00:18.000Z,9.33
2018-11-26T20:02:49.373Z,9.03
2018-11-26T20:05:21.320Z,7.40
2018-11-26T20:07:49.800Z,9.93
2018-11-26T20:10:18.239Z,7.70
2018-11-26T20:12:46.712Z,8.40
2018-11-26T20:15:16.550Z,8.67
2018-11-26T20:17:45.059Z,7.37
2018-11-26T20:20:13.522Z,8.50
2018-11-26T20:22:42.021Z,7.97
2018-11-26T20:25:13.010Z,9.40
2018-11-26T20:27:41.641Z,13.13
2018-11-26T20:30:13.737Z,12.00
2018-11-26T20:32:48.250Z,9.30
2018-11-26T20:35:16.719Z,7.40
2018-11-26T20:37:45.152Z,8.93
2018-11-26T20:40:15.009Z,7.67
2018-11-26T20:42:52.692Z,6.70
2018-11-26T20:45:21.188Z,6.63
2018-11-26T20:47:50.602Z,10.80
2018-11-26T20:50:24.553Z,10.73
2018-11-26T20:52:53.010Z,7.10
2018-11-26T20:55:22.644Z,4.50
2018-11-26T20:57:52.158Z,6.47
2018-11-26T21:00:22.766Z,6.30
2018-11-26T21:02:52.761Z,6.70
2018-11-26T21:05:21.253Z,5.83
2018-11-26T21:07:49.709Z,6.83
2018-11-26T21:10:18.271Z,4.83
2018-11-26T21:12:46.738Z,5.77
2018-11-26T21:15:16.543Z,6.27
2018-11-26T21:17:47.638Z,9.97
2018-11-26T21:20:20.046Z,7.33
2018-11-26T21:22:48.513Z,8.53
2018-11-26T21:25:17.677Z,8.40
2018-11-26T21:27:46.181Z,7.07
2018-11-26T21:30:18.650Z,7.20
2018-11-26T21:32:47.132Z,7.40
2018-11-26T21:35:16.789Z,7.20
2018-11-26T21:37:46.590Z,9.33
2018-11-26T21:40:20.310Z,7.17
2018-11-26T21:42:44.736Z,5.33
2018-11-26T21:45:15.498Z,5.40
2018-11-26T21:47:43.945Z,5.87
2018-11-26T21:50:13.761Z,6.53
2018-11-26T21:52:42.349Z,6.83
2018-11-26T21:55:12.348Z,5.83
2018-11-26T21:57:40.835Z,5.80
2018-11-26T22:00:16.378Z,5.90
2018-11-26T22:02:44.845Z,8.73
2018-11-26T22:05:13.324Z,6.07
2018-11-26T22:07:41.773Z,7.07
2018-11-26T22:10:13.589Z,6.27
2018-11-26T22:12:42.780Z,8.53
2018-11-26T22:15:12.590Z,8.33
2018-11-26T22:17:41.225Z,12.53
2018-11-26T22:20:11.387Z,8.90
2018-11-26T22:22:39.849Z,8.20
2018-11-26T22:25:09.914Z,5.40
2018-11-26T22:27:38.392Z,9.70
2018-11-26T22:30:12.008Z,9.73
2018-11-26T22:32:40.459Z,9.80
2018-11-26T22:35:09.203Z,9.80
2018-11-26T22:37:37.652Z,8.27
2018-11-26T22:40:10.037Z,10.00
2018-11-26T22:42:38.540Z,6.62
2018-11-26T22:45:09.886Z,6.45
2018-11-26T22:47:38.390Z,7.25
2018-11-26T22:50:10.905Z,7.90
2018-11-26T22:52:39.874Z,5.40
2018-11-26T22:55:09.318Z,8.07
2018-11-26T22:57:37.833Z,7.40
2018-11-26T23:00:54.655Z,10.00
2018-11-26T23:03:26.337Z,10.77
2018-11-26T23:05:54.829Z,7.53
2018-11-26T23:08:23.307Z,8.93
2018-11-26T23:10:51.789Z,7.57
2018-11-26T23:13:20.252Z,6.33
2018-11-26T23:15:48.741Z,10.60
2018-11-26T23:18:17.201Z,7.47
2018-11-26T23:20:45.685Z,6.80
2018-11-26T23:23:14.144Z,9.00
2018-11-26T23:25:42.654Z,7.30
2018-11-26T23:28:11.129Z,8.63
2018-11-26T23:30:39.613Z,7.93
2018-11-26T23:33:08.523Z,8.57
2018-11-26T23:35:37.033Z,11.40
2018-11-26T23:38:05.654Z,8.50
2018-11-26T23:40:34.366Z,7.47
2018-11-26T23:43:02.839Z,9.93
2018-11-26T23:45:31.306Z,9.10
2018-11-26T23:47:59.782Z,9.53
2018-11-26T23:50:28.236Z,6.33
2018-11-26T23:52:56.727Z,7.53
2018-11-26T23:55:25.486Z,8.95
2018-11-26T23:57:53.985Z,7.40
